sensor_id;sensor_type;location;lat;lon;timestamp;temperature;humidity
51841;DHT22;37888;53.246;6.658;2023-08-07T00:01:07;15.30;99.90
51841;DHT22;37888;53.246;6.658;2023-08-07T00:03:32;15.30;99.90
51841;DHT22;37888;53.246;6.658;2023-08-07T00:05:58;15.40;99.90
51841;DHT22;37888;53.246;6.658;2023-08-07T00:08:27;15.30;99.90
51841;DHT22;37888;53.246;6.658;2023-08-07T00:10:52;15.50;99.90
51841;DHT22;37888;53.246;6.658;2023-08-07T00:13:18;15.50;99.90
51841;DHT22;37888;53.246;6.658;2023-08-07T00:15:44;15.40;99.90
51841;DHT22;37888;53.246;6.658;2023-08-07T00:18:10;15.40;99.90
51841;DHT22;37888;53.246;6.658;2023-08-07T00:20:36;15.40;99.90
51841;DHT22;37888;53.246;6.658;2023-08-07T00:23:02;15.30;99.90
51841;DHT22;37888;53.246;6.658;2023-08-07T00:25:28;15.30;99.90
51841;DHT22;37888;53.246;6.658;2023-08-07T00:27:54;15.30;99.90
51841;DHT22;37888;53.246;6.658;2023-08-07T00:30:20;15.30;99.90
51841;DHT22;37888;53.246;6.658;2023-08-07T00:32:46;15.30;99.90
51841;DHT22;37888;53.246;6.658;2023-08-07T00:35:11;15.20;99.90
51841;DHT22;37888;53.246;6.658;2023-08-07T00:37:37;15.20;99.90
51841;DHT22;37888;53.246;6.658;2023-08-07T00:40:06;15.20;99.90
51841;DHT22;37888;53.246;6.658;2023-08-07T00:42:32;15.20;99.90
51841;DHT22;37888;53.246;6.658;2023-08-07T00:44:58;15.20;99.90
51841;DHT22;37888;53.246;6.658;2023-08-07T00:47:24;15.20;99.90
51841;DHT22;37888;53.246;6.658;2023-08-07T00:49:54;15.60;99.90
51841;DHT22;37888;53.246;6.658;2023-08-07T00:52:21;15.10;99.90
51841;DHT22;37888;53.246;6.658;2023-08-07T00:54:46;15.10;99.90
51841;DHT22;37888;53.246;6.658;2023-08-07T00:57:13;15.10;99.90
51841;DHT22;37888;53.246;6.658;2023-08-07T00:59:42;15.00;99.90
51841;DHT22;37888;53.246;6.658;2023-08-07T01:02:10;15.00;99.90
51841;DHT22;37888;53.246;6.658;2023-08-07T01:04:36;15.00;99.90
51841;DHT22;37888;53.246;6.658;2023-08-07T01:07:02;15.00;99.90
51841;DHT22;37888;53.246;6.658;2023-08-07T01:09:30;15.00;99.90
51841;DHT22;37888;53.246;6.658;2023-08-07T01:11:59;15.00;99.90
51841;DHT22;37888;53.246;6.658;2023-08-07T01:14:40;15.00;99.90
51841;DHT22;37888;53.246;6.658;2023-08-07T01:17:14;14.90;99.90
51841;DHT22;37888;53.246;6.658;2023-08-07T01:19:41;14.90;99.90
51841;DHT22;37888;53.246;6.658;2023-08-07T01:22:17;14.90;99.90
51841;DHT22;37888;53.246;6.658;2023-08-07T01:24:46;14.80;99.90
51841;DHT22;37888;53.246;6.658;2023-08-07T01:32:59;14.70;99.90
51841;DHT22;37888;53.246;6.658;2023-08-07T01:35:32;15.10;99.90
51841;DHT22;37888;53.246;6.658;2023-08-07T01:37:59;14.60;99.90
51841;DHT22;37888;53.246;6.658;2023-08-07T01:40:27;14.60;99.90
51841;DHT22;37888;53.246;6.658;2023-08-07T01:42:53;14.50;99.90
51841;DHT22;37888;53.246;6.658;2023-08-07T01:45:27;14.50;99.90
51841;DHT22;37888;53.246;6.658;2023-08-07T01:47:54;14.50;99.90
51841;DHT22;37888;53.246;6.658;2023-08-07T01:50:21;14.50;99.90
51841;DHT22;37888;53.246;6.658;2023-08-07T01:52:47;14.50;99.90
51841;DHT22;37888;53.246;6.658;2023-08-07T01:55:17;14.40;99.90
51841;DHT22;37888;53.246;6.658;2023-08-07T01:57:43;14.40;99.90
51841;DHT22;37888;53.246;6.658;2023-08-07T02:00:09;13.80;99.90
51841;DHT22;37888;53.246;6.658;2023-08-07T02:02:36;14.40;99.90
51841;DHT22;37888;53.246;6.658;2023-08-07T02:05:02;14.50;99.90
51841;DHT22;37888;53.246;6.658;2023-08-07T02:07:28;14.40;99.90
51841;DHT22;37888;53.246;6.658;2023-08-07T02:09:54;14.40;99.90
51841;DHT22;37888;53.246;6.658;2023-08-07T02:12:22;14.40;99.90
51841;DHT22;37888;53.246;6.658;2023-08-07T02:14:48;14.40;99.90
51841;DHT22;37888;53.246;6.658;2023-08-07T02:17:14;14.40;99.90
51841;DHT22;37888;53.246;6.658;2023-08-07T02:19:39;14.40;99.90
51841;DHT22;37888;53.246;6.658;2023-08-07T02:22:05;14.40;99.90
51841;DHT22;37888;53.246;6.658;2023-08-07T02:24:31;14.40;99.90
51841;DHT22;37888;53.246;6.658;2023-08-07T02:26:57;14.40;99.90
51841;DHT22;37888;53.246;6.658;2023-08-07T02:29:23;14.40;99.90
51841;DHT22;37888;53.246;6.658;2023-08-07T02:31:49;14.40;99.90
51841;DHT22;37888;53.246;6.658;2023-08-07T02:34:15;14.40;99.90
51841;DHT22;37888;53.246;6.658;2023-08-07T02:36:40;14.40;99.90
51841;DHT22;37888;53.246;6.658;2023-08-07T02:39:06;14.30;99.90
51841;DHT22;37888;53.246;6.658;2023-08-07T02:41:33;14.40;99.90
51841;DHT22;37888;53.246;6.658;2023-08-07T02:43:58;14.40;99.90
51841;DHT22;37888;53.246;6.658;2023-08-07T02:46:24;14.40;99.90
51841;DHT22;37888;53.246;6.658;2023-08-07T02:48:50;14.40;99.90
51841;DHT22;37888;53.246;6.658;2023-08-07T02:51:16;14.40;99.90
51841;DHT22;37888;53.246;6.658;2023-08-07T02:53:41;14.40;99.90
51841;DHT22;37888;53.246;6.658;2023-08-07T02:56:07;14.40;99.90
51841;DHT22;37888;53.246;6.658;2023-08-07T02:58:33;14.40;99.90
51841;DHT22;37888;53.246;6.658;2023-08-07T03:01:05;14.90;99.90
51841;DHT22;37888;53.246;6.658;2023-08-07T03:03:34;14.50;99.90
51841;DHT22;37888;53.246;6.658;2023-08-07T03:06:00;14.50;99.90
51841;DHT22;37888;53.246;6.658;2023-08-07T03:08:28;14.50;99.90
51841;DHT22;37888;53.246;6.658;2023-08-07T03:10:55;14.50;99.90
51841;DHT22;37888;53.246;6.658;2023-08-07T03:13:22;14.50;99.90
51841;DHT22;37888;53.246;6.658;2023-08-07T03:15:48;14.50;99.90
51841;DHT22;37888;53.246;6.658;2023-08-07T03:18:17;14.50;99.90
51841;DHT22;37888;53.246;6.658;2023-08-07T03:20:43;14.50;99.90
51841;DHT22;37888;53.246;6.658;2023-08-07T03:23:10;14.50;99.90
51841;DHT22;37888;53.246;6.658;2023-08-07T03:25:35;14.50;99.90
51841;DHT22;37888;53.246;6.658;2023-08-07T03:28:01;14.40;99.90
51841;DHT22;37888;53.246;6.658;2023-08-07T03:30:27;14.00;99.90
51841;DHT22;37888;53.246;6.658;2023-08-07T03:32:53;14.40;99.90
51841;DHT22;37888;53.246;6.658;2023-08-07T03:35:19;14.40;99.90
51841;DHT22;37888;53.246;6.658;2023-08-07T03:37:45;14.40;99.90
51841;DHT22;37888;53.246;6.658;2023-08-07T03:40:11;14.40;99.90
51841;DHT22;37888;53.246;6.658;2023-08-07T03:42:42;14.40;99.90
51841;DHT22;37888;53.246;6.658;2023-08-07T03:45:14;14.40;99.90
51841;DHT22;37888;53.246;6.658;2023-08-07T03:47:42;14.40;99.90
51841;DHT22;37888;53.246;6.658;2023-08-07T03:50:08;14.40;99.90
51841;DHT22;37888;53.246;6.658;2023-08-07T03:52:42;14.40;99.90
51841;DHT22;37888;53.246;6.658;2023-08-07T03:55:11;14.40;99.90
51841;DHT22;37888;53.246;6.658;2023-08-07T03:57:37;14.60;99.90
51841;DHT22;37888;53.246;6.658;2023-08-07T04:00:09;14.60;99.90
51841;DHT22;37888;53.246;6.658;2023-08-07T04:02:38;14.60;99.90
51841;DHT22;37888;53.246;6.658;2023-08-07T04:05:04;14.50;99.90
51841;DHT22;37888;53.246;6.658;2023-08-07T04:07:30;14.50;99.90
51841;DHT22;37888;53.246;6.658;2023-08-07T04:09:56;14.40;99.90
51841;DHT22;37888;53.246;6.658;2023-08-07T04:12:27;14.50;99.90
51841;DHT22;37888;53.246;6.658;2023-08-07T04:14:56;14.40;99.90
51841;DHT22;37888;53.246;6.658;2023-08-07T04:17:24;14.40;99.90
51841;DHT22;37888;53.246;6.658;2023-08-07T04:19:52;14.40;99.90
51841;DHT22;37888;53.246;6.658;2023-08-07T04:22:18;14.50;99.90
51841;DHT22;37888;53.246;6.658;2023-08-07T04:24:49;14.50;99.90
51841;DHT22;37888;53.246;6.658;2023-08-07T04:27:18;14.40;99.90
51841;DHT22;37888;53.246;6.658;2023-08-07T04:29:44;14.40;99.90
51841;DHT22;37888;53.246;6.658;2023-08-07T04:32:09;14.50;99.90
51841;DHT22;37888;53.246;6.658;2023-08-07T04:34:38;14.40;99.90
51841;DHT22;37888;53.246;6.658;2023-08-07T04:37:04;13.90;99.90
51841;DHT22;37888;53.246;6.658;2023-08-07T04:39:30;14.40;99.90
51841;DHT22;37888;53.246;6.658;2023-08-07T04:41:57;14.40;99.90
51841;DHT22;37888;53.246;6.658;2023-08-07T04:44:23;15.10;99.90
51841;DHT22;37888;53.246;6.658;2023-08-07T04:46:49;14.40;99.90
51841;DHT22;37888;53.246;6.658;2023-08-07T04:49:15;14.40;99.90
51841;DHT22;37888;53.246;6.658;2023-08-07T04:51:40;14.40;99.90
51841;DHT22;37888;53.246;6.658;2023-08-07T04:54:06;14.40;99.90
51841;DHT22;37888;53.246;6.658;2023-08-07T04:56:32;14.70;99.90
51841;DHT22;37888;53.246;6.658;2023-08-07T04:58:58;14.40;99.90
51841;DHT22;37888;53.246;6.658;2023-08-07T05:01:26;14.50;99.90
51841;DHT22;37888;53.246;6.658;2023-08-07T05:03:52;14.20;99.90
51841;DHT22;37888;53.246;6.658;2023-08-07T05:06:20;14.60;99.90
51841;DHT22;37888;53.246;6.658;2023-08-07T05:08:46;14.60;99.90
51841;DHT22;37888;53.246;6.658;2023-08-07T05:11:12;14.70;99.90
51841;DHT22;37888;53.246;6.658;2023-08-07T05:13:43;14.70;99.90
51841;DHT22;37888;53.246;6.658;2023-08-07T05:16:09;14.80;99.90
51841;DHT22;37888;53.246;6.658;2023-08-07T05:18:37;14.90;99.90
51841;DHT22;37888;53.246;6.658;2023-08-07T05:21:03;14.90;99.90
51841;DHT22;37888;53.246;6.658;2023-08-07T05:23:38;15.00;99.90
51841;DHT22;37888;53.246;6.658;2023-08-07T05:26:12;15.00;99.90
51841;DHT22;37888;53.246;6.658;2023-08-07T05:28:38;15.00;99.90
51841;DHT22;37888;53.246;6.658;2023-08-07T05:31:04;15.00;99.90
51841;DHT22;37888;53.246;6.658;2023-08-07T05:33:32;15.00;99.90
51841;DHT22;37888;53.246;6.658;2023-08-07T05:36:04;15.00;99.90
51841;DHT22;37888;53.246;6.658;2023-08-07T05:38:37;15.40;99.90
51841;DHT22;37888;53.246;6.658;2023-08-07T05:41:08;14.60;99.90
51841;DHT22;37888;53.246;6.658;2023-08-07T05:43:34;15.00;99.90
51841;DHT22;37888;53.246;6.658;2023-08-07T05:46:11;15.20;99.90
51841;DHT22;37888;53.246;6.658;2023-08-07T05:48:39;15.40;99.90
51841;DHT22;37888;53.246;6.658;2023-08-07T05:51:07;16.30;99.90
51841;DHT22;37888;53.246;6.658;2023-08-07T05:53:37;16.60;99.90
51841;DHT22;37888;53.246;6.658;2023-08-07T05:56:06;16.40;99.90
51841;DHT22;37888;53.246;6.658;2023-08-07T05:58:56;16.10;99.90
51841;DHT22;37888;53.246;6.658;2023-08-07T06:01:31;15.90;99.90
51841;DHT22;37888;53.246;6.658;2023-08-07T06:04:06;15.40;99.90
51841;DHT22;37888;53.246;6.658;2023-08-07T06:06:43;15.20;99.90
51841;DHT22;37888;53.246;6.658;2023-08-07T06:09:34;15.10;99.90
51841;DHT22;37888;53.246;6.658;2023-08-07T06:12:09;15.00;99.90
51841;DHT22;37888;53.246;6.658;2023-08-07T06:14:40;15.00;99.90
51841;DHT22;37888;53.246;6.658;2023-08-07T06:17:07;15.00;99.90
51841;DHT22;37888;53.246;6.658;2023-08-07T06:19:42;15.50;99.90
51841;DHT22;37888;53.246;6.658;2023-08-07T06:22:20;15.70;99.90
51841;DHT22;37888;53.246;6.658;2023-08-07T06:24:59;16.50;99.90
51841;DHT22;37888;53.246;6.658;2023-08-07T06:28:08;16.80;99.90
51841;DHT22;37888;53.246;6.658;2023-08-07T06:30:37;16.60;99.90
51841;DHT22;37888;53.246;6.658;2023-08-07T06:36:40;15.80;99.90
51841;DHT22;37888;53.246;6.658;2023-08-07T06:39:06;16.90;99.90
51841;DHT22;37888;53.246;6.658;2023-08-07T06:41:45;17.70;99.90
51841;DHT22;37888;53.246;6.658;2023-08-07T06:44:16;17.70;99.90
51841;DHT22;37888;53.246;6.658;2023-08-07T06:46:58;16.70;99.90
51841;DHT22;37888;53.246;6.658;2023-08-07T06:57:05;14.70;99.90
51841;DHT22;37888;53.246;6.658;2023-08-07T06:59:57;15.00;99.90
51841;DHT22;37888;53.246;6.658;2023-08-07T07:02:45;14.90;99.90
51841;DHT22;37888;53.246;6.658;2023-08-07T07:05:10;14.80;99.90
51841;DHT22;37888;53.246;6.658;2023-08-07T07:07:36;14.80;99.90
51841;DHT22;37888;53.246;6.658;2023-08-07T07:10:02;14.90;99.90
51841;DHT22;37888;53.246;6.658;2023-08-07T07:12:28;14.90;99.90
51841;DHT22;37888;53.246;6.658;2023-08-07T07:14:53;15.00;99.90
51841;DHT22;37888;53.246;6.658;2023-08-07T07:17:22;15.00;99.90
51841;DHT22;37888;53.246;6.658;2023-08-07T07:19:52;15.10;99.90
51841;DHT22;37888;53.246;6.658;2023-08-07T07:22:33;15.10;99.90
51841;DHT22;37888;53.246;6.658;2023-08-07T07:25:14;15.20;99.90
51841;DHT22;37888;53.246;6.658;2023-08-07T07:27:52;15.20;99.90
51841;DHT22;37888;53.246;6.658;2023-08-07T07:30:20;15.30;99.90
51841;DHT22;37888;53.246;6.658;2023-08-07T07:32:57;15.30;99.90
51841;DHT22;37888;53.246;6.658;2023-08-07T07:35:26;16.20;99.90
51841;DHT22;37888;53.246;6.658;2023-08-07T07:37:53;17.10;99.90
51841;DHT22;37888;53.246;6.658;2023-08-07T07:40:21;17.10;99.90
51841;DHT22;37888;53.246;6.658;2023-08-07T07:43:21;17.20;99.90
51841;DHT22;37888;53.246;6.658;2023-08-07T07:46:03;16.50;99.90
51841;DHT22;37888;53.246;6.658;2023-08-07T07:51:58;16.10;99.90
51841;DHT22;37888;53.246;6.658;2023-08-07T07:58:30;16.40;99.90
51841;DHT22;37888;53.246;6.658;2023-08-07T08:01:16;16.40;99.90
51841;DHT22;37888;53.246;6.658;2023-08-07T08:07:09;15.80;99.90
51841;DHT22;37888;53.246;6.658;2023-08-07T08:09:35;15.80;99.90
51841;DHT22;37888;53.246;6.658;2023-08-07T08:12:01;15.40;99.90
51841;DHT22;37888;53.246;6.658;2023-08-07T08:14:26;15.40;99.90
51841;DHT22;37888;53.246;6.658;2023-08-07T08:16:52;15.30;99.90
51841;DHT22;37888;53.246;6.658;2023-08-07T08:19:18;15.30;99.90
51841;DHT22;37888;53.246;6.658;2023-08-07T08:21:47;15.20;99.90
51841;DHT22;37888;53.246;6.658;2023-08-07T08:24:25;15.30;99.90
51841;DHT22;37888;53.246;6.658;2023-08-07T08:26:51;15.50;99.90
51841;DHT22;37888;53.246;6.658;2023-08-07T08:29:17;15.90;99.90
51841;DHT22;37888;53.246;6.658;2023-08-07T08:31:43;16.50;99.90
51841;DHT22;37888;53.246;6.658;2023-08-07T08:34:09;17.40;99.90
51841;DHT22;37888;53.246;6.658;2023-08-07T08:36:37;18.10;99.90
51841;DHT22;37888;53.246;6.658;2023-08-07T08:39:03;18.60;99.90
51841;DHT22;37888;53.246;6.658;2023-08-07T08:41:29;18.10;99.90
51841;DHT22;37888;53.246;6.658;2023-08-07T08:43:56;17.40;99.90
51841;DHT22;37888;53.246;6.658;2023-08-07T08:46:24;17.10;99.90
51841;DHT22;37888;53.246;6.658;2023-08-07T08:48:57;17.00;99.90
51841;DHT22;37888;53.246;6.658;2023-08-07T08:51:24;17.40;99.90
51841;DHT22;37888;53.246;6.658;2023-08-07T08:53:52;17.10;99.90
51841;DHT22;37888;53.246;6.658;2023-08-07T08:56:19;17.50;99.90
51841;DHT22;37888;53.246;6.658;2023-08-07T08:58:51;18.00;99.90
51841;DHT22;37888;53.246;6.658;2023-08-07T09:01:17;18.00;99.90
51841;DHT22;37888;53.246;6.658;2023-08-07T09:04:03;18.40;99.90
51841;DHT22;37888;53.246;6.658;2023-08-07T09:06:38;18.40;99.90
51841;DHT22;37888;53.246;6.658;2023-08-07T09:09:30;18.50;99.90
51841;DHT22;37888;53.246;6.658;2023-08-07T09:12:00;18.40;99.90
51841;DHT22;37888;53.246;6.658;2023-08-07T09:14:27;18.40;99.90
51841;DHT22;37888;53.246;6.658;2023-08-07T09:17:02;18.00;99.90
51841;DHT22;37888;53.246;6.658;2023-08-07T09:19:28;18.20;99.90
51841;DHT22;37888;53.246;6.658;2023-08-07T09:21:54;17.80;99.90
51841;DHT22;37888;53.246;6.658;2023-08-07T09:24:28;17.70;99.90
51841;DHT22;37888;53.246;6.658;2023-08-07T09:26:57;17.20;99.90
51841;DHT22;37888;53.246;6.658;2023-08-07T09:29:24;16.70;99.90
51841;DHT22;37888;53.246;6.658;2023-08-07T09:31:52;17.10;99.90
51841;DHT22;37888;53.246;6.658;2023-08-07T09:34:20;17.00;99.90
51841;DHT22;37888;53.246;6.658;2023-08-07T09:36:49;16.70;99.90
51841;DHT22;37888;53.246;6.658;2023-08-07T09:39:14;16.90;99.90
51841;DHT22;37888;53.246;6.658;2023-08-07T09:41:40;17.20;99.90
51841;DHT22;37888;53.246;6.658;2023-08-07T09:44:07;17.10;99.90
51841;DHT22;37888;53.246;6.658;2023-08-07T09:46:45;17.00;99.90
51841;DHT22;37888;53.246;6.658;2023-08-07T09:49:11;17.10;99.90
51841;DHT22;37888;53.246;6.658;2023-08-07T09:51:47;17.30;99.90
51841;DHT22;37888;53.246;6.658;2023-08-07T09:54:16;17.50;99.90
51841;DHT22;37888;53.246;6.658;2023-08-07T09:57:01;17.60;99.90
51841;DHT22;37888;53.246;6.658;2023-08-07T09:59:30;17.30;99.90
51841;DHT22;37888;53.246;6.658;2023-08-07T10:01:57;17.00;99.90
51841;DHT22;37888;53.246;6.658;2023-08-07T10:04:26;16.80;99.90
51841;DHT22;37888;53.246;6.658;2023-08-07T10:10:02;16.40;99.90
51841;DHT22;37888;53.246;6.658;2023-08-07T10:12:34;16.30;99.90
51841;DHT22;37888;53.246;6.658;2023-08-07T10:18:44;16.50;99.90
51841;DHT22;37888;53.246;6.658;2023-08-07T10:21:24;16.70;99.90
51841;DHT22;37888;53.246;6.658;2023-08-07T10:24:09;16.90;99.90
51841;DHT22;37888;53.246;6.658;2023-08-07T10:30:38;16.70;99.90
51841;DHT22;37888;53.246;6.658;2023-08-07T10:33:52;16.50;99.90
51841;DHT22;37888;53.246;6.658;2023-08-07T10:36:22;16.50;99.90
51841;DHT22;37888;53.246;6.658;2023-08-07T10:39:08;16.50;99.90
51841;DHT22;37888;53.246;6.658;2023-08-07T10:41:47;16.50;99.90
51841;DHT22;37888;53.246;6.658;2023-08-07T10:44:31;16.50;99.90
51841;DHT22;37888;53.246;6.658;2023-08-07T10:53:40;16.30;99.90
51841;DHT22;37888;53.246;6.658;2023-08-07T10:56:35;16.60;99.90
51841;DHT22;37888;53.246;6.658;2023-08-07T11:02:42;17.30;99.90
51841;DHT22;37888;53.246;6.658;2023-08-07T11:05:33;17.50;99.90
51841;DHT22;37888;53.246;6.658;2023-08-07T11:08:25;17.50;99.90
51841;DHT22;37888;53.246;6.658;2023-08-07T11:23:11;16.60;99.90
51841;DHT22;37888;53.246;6.658;2023-08-07T11:26:45;16.20;99.90
51841;DHT22;37888;53.246;6.658;2023-08-07T11:33:05;16.30;99.90
51841;DHT22;37888;53.246;6.658;2023-08-07T11:36:13;16.10;99.90
51841;DHT22;37888;53.246;6.658;2023-08-07T11:39:09;16.40;99.90
51841;DHT22;37888;53.246;6.658;2023-08-07T11:45:45;16.30;99.90
51841;DHT22;37888;53.246;6.658;2023-08-07T11:48:46;16.70;99.90
51841;DHT22;37888;53.246;6.658;2023-08-07T11:54:34;16.70;99.90
51841;DHT22;37888;53.246;6.658;2023-08-07T11:57:20;16.90;99.90
51841;DHT22;37888;53.246;6.658;2023-08-07T11:59:53;16.90;99.90
51841;DHT22;37888;53.246;6.658;2023-08-07T12:02:24;17.00;99.90
51841;DHT22;37888;53.246;6.658;2023-08-07T12:05:17;17.00;99.90
51841;DHT22;37888;53.246;6.658;2023-08-07T12:12:51;17.10;99.90
51841;DHT22;37888;53.246;6.658;2023-08-07T12:23:41;16.40;99.90
51841;DHT22;37888;53.246;6.658;2023-08-07T12:32:07;16.10;99.90
51841;DHT22;37888;53.246;6.658;2023-08-07T12:34:43;16.30;99.90
51841;DHT22;37888;53.246;6.658;2023-08-07T12:37:36;16.10;99.90
51841;DHT22;37888;53.246;6.658;2023-08-07T12:40:02;16.50;99.90
51841;DHT22;37888;53.246;6.658;2023-08-07T12:46:11;17.00;99.90
51841;DHT22;37888;53.246;6.658;2023-08-07T12:48:54;17.10;99.90
51841;DHT22;37888;53.246;6.658;2023-08-07T12:51:42;17.20;99.90
51841;DHT22;37888;53.246;6.658;2023-08-07T12:57:46;17.20;99.90
51841;DHT22;37888;53.246;6.658;2023-08-07T13:00:21;17.20;99.90
51841;DHT22;37888;53.246;6.658;2023-08-07T13:55:24;17.20;99.90
51841;DHT22;37888;53.246;6.658;2023-08-07T14:13:40;16.40;99.90
51841;DHT22;37888;53.246;6.658;2023-08-07T14:16:06;16.80;99.90
51841;DHT22;37888;53.246;6.658;2023-08-07T14:18:32;16.80;99.90
51841;DHT22;37888;53.246;6.658;2023-08-07T14:21:32;16.80;99.90
51841;DHT22;37888;53.246;6.658;2023-08-07T15:01:37;16.90;99.90
51841;DHT22;37888;53.246;6.658;2023-08-07T15:08:14;16.40;99.90
51841;DHT22;37888;53.246;6.658;2023-08-07T15:10:40;16.60;99.90
51841;DHT22;37888;53.246;6.658;2023-08-07T15:34:09;16.10;99.90
51841;DHT22;37888;53.246;6.658;2023-08-07T15:36:38;16.20;99.90
51841;DHT22;37888;53.246;6.658;2023-08-07T15:39:30;16.20;99.90
51841;DHT22;37888;53.246;6.658;2023-08-07T15:42:56;16.20;99.90
51841;DHT22;37888;53.246;6.658;2023-08-07T15:49:36;16.20;99.90
51841;DHT22;37888;53.246;6.658;2023-08-07T15:55:16;16.00;99.90
51841;DHT22;37888;53.246;6.658;2023-08-07T15:57:41;16.20;99.90
51841;DHT22;37888;53.246;6.658;2023-08-07T16:04:14;16.20;99.90
51841;DHT22;37888;53.246;6.658;2023-08-07T16:07:00;16.20;99.90
51841;DHT22;37888;53.246;6.658;2023-08-07T16:09:50;16.20;99.90
51841;DHT22;37888;53.246;6.658;2023-08-07T16:23:46;16.30;99.90
51841;DHT22;37888;53.246;6.658;2023-08-07T19:51:46;14.10;99.90
51841;DHT22;37888;53.246;6.658;2023-08-07T19:58:11;14.00;99.90
51841;DHT22;37888;53.246;6.658;2023-08-07T20:00:42;14.00;99.90
51841;DHT22;37888;53.246;6.658;2023-08-07T20:03:08;14.00;99.90
51841;DHT22;37888;53.246;6.658;2023-08-07T20:05:39;14.00;99.90
51841;DHT22;37888;53.246;6.658;2023-08-07T20:08:08;14.00;99.90
51841;DHT22;37888;53.246;6.658;2023-08-07T20:11:01;13.60;99.90
51841;DHT22;37888;53.246;6.658;2023-08-07T20:13:36;14.00;99.90
51841;DHT22;37888;53.246;6.658;2023-08-07T20:16:10;13.90;99.90
51841;DHT22;37888;53.246;6.658;2023-08-07T20:22:21;14.50;99.90
51841;DHT22;37888;53.246;6.658;2023-08-07T20:24:53;13.90;99.90
51841;DHT22;37888;53.246;6.658;2023-08-07T20:30:50;13.90;99.90
51841;DHT22;37888;53.246;6.658;2023-08-07T20:33:36;13.80;99.90
51841;DHT22;37888;53.246;6.658;2023-08-07T20:36:30;13.80;99.90
51841;DHT22;37888;53.246;6.658;2023-08-07T20:39:05;13.80;99.90
51841;DHT22;37888;53.246;6.658;2023-08-07T20:45:57;13.20;99.90
51841;DHT22;37888;53.246;6.658;2023-08-07T20:48:55;13.80;99.90
51841;DHT22;37888;53.246;6.658;2023-08-07T20:51:36;13.80;99.90
51841;DHT22;37888;53.246;6.658;2023-08-07T21:12:38;13.20;99.90
51841;DHT22;37888;53.246;6.658;2023-08-07T21:15:41;13.60;99.90
51841;DHT22;37888;53.246;6.658;2023-08-07T21:49:53;13.50;99.90
51841;DHT22;37888;53.246;6.658;2023-08-07T21:53:05;13.40;99.90
51841;DHT22;37888;53.246;6.658;2023-08-07T21:58:53;13.40;99.90
51841;DHT22;37888;53.246;6.658;2023-08-07T22:01:32;13.50;99.90
51841;DHT22;37888;53.246;6.658;2023-08-07T22:04:01;13.50;99.90
51841;DHT22;37888;53.246;6.658;2023-08-07T22:06:43;13.50;99.90
51841;DHT22;37888;53.246;6.658;2023-08-07T22:09:12;13.60;99.90
51841;DHT22;37888;53.246;6.658;2023-08-07T22:11:38;13.60;99.90
51841;DHT22;37888;53.246;6.658;2023-08-07T22:14:09;13.60;99.90
51841;DHT22;37888;53.246;6.658;2023-08-07T22:16:46;13.60;99.90
51841;DHT22;37888;53.246;6.658;2023-08-07T22:19:13;13.60;99.90
51841;DHT22;37888;53.246;6.658;2023-08-07T22:21:39;13.60;99.90
51841;DHT22;37888;53.246;6.658;2023-08-07T22:24:06;13.60;99.90
51841;DHT22;37888;53.246;6.658;2023-08-07T22:26:34;13.60;99.90
51841;DHT22;37888;53.246;6.658;2023-08-07T22:29:03;13.70;99.90
51841;DHT22;37888;53.246;6.658;2023-08-07T22:31:34;13.60;99.90
51841;DHT22;37888;53.246;6.658;2023-08-07T22:34:02;13.50;99.90
51841;DHT22;37888;53.246;6.658;2023-08-07T22:36:34;13.60;99.90
51841;DHT22;37888;53.246;6.658;2023-08-07T22:39:00;13.70;99.90
51841;DHT22;37888;53.246;6.658;2023-08-07T22:41:32;13.60;99.90
51841;DHT22;37888;53.246;6.658;2023-08-07T22:43:59;13.70;99.90
51841;DHT22;37888;53.246;6.658;2023-08-07T22:46:25;13.70;99.90
51841;DHT22;37888;53.246;6.658;2023-08-07T22:48:51;13.70;99.90
51841;DHT22;37888;53.246;6.658;2023-08-07T22:51:18;13.70;99.90
51841;DHT22;37888;53.246;6.658;2023-08-07T22:53:47;13.70;99.90
51841;DHT22;37888;53.246;6.658;2023-08-07T22:56:21;13.20;99.90
51841;DHT22;37888;53.246;6.658;2023-08-07T22:58:48;14.00;99.90
51841;DHT22;37888;53.246;6.658;2023-08-07T23:01:16;13.70;99.90
51841;DHT22;37888;53.246;6.658;2023-08-07T23:03:45;13.80;99.90
51841;DHT22;37888;53.246;6.658;2023-08-07T23:06:14;13.70;99.90
51841;DHT22;37888;53.246;6.658;2023-08-07T23:08:42;13.90;99.90
51841;DHT22;37888;53.246;6.658;2023-08-07T23:11:08;14.60;99.90
51841;DHT22;37888;53.246;6.658;2023-08-07T23:13:34;13.30;99.90
51841;DHT22;37888;53.246;6.658;2023-08-07T23:16:00;13.90;99.90
51841;DHT22;37888;53.246;6.658;2023-08-07T23:18:26;13.70;99.90
51841;DHT22;37888;53.246;6.658;2023-08-07T23:21:05;13.70;99.90
51841;DHT22;37888;53.246;6.658;2023-08-07T23:23:32;13.70;99.90
51841;DHT22;37888;53.246;6.658;2023-08-07T23:25:58;13.70;99.90
51841;DHT22;37888;53.246;6.658;2023-08-07T23:28:26;13.70;99.90
51841;DHT22;37888;53.246;6.658;2023-08-07T23:30:57;13.70;99.90
51841;DHT22;37888;53.246;6.658;2023-08-07T23:33:25;13.70;99.90
51841;DHT22;37888;53.246;6.658;2023-08-07T23:35:54;13.70;99.90
51841;DHT22;37888;53.246;6.658;2023-08-07T23:38:25;13.70;99.90
51841;DHT22;37888;53.246;6.658;2023-08-07T23:40:51;13.70;99.90
51841;DHT22;37888;53.246;6.658;2023-08-07T23:43:17;13.70;99.90
51841;DHT22;37888;53.246;6.658;2023-08-07T23:45:45;13.70;99.90
51841;DHT22;37888;53.246;6.658;2023-08-07T23:48:14;13.60;99.90
51841;DHT22;37888;53.246;6.658;2023-08-07T23:50:43;14.40;99.90
51841;DHT22;37888;53.246;6.658;2023-08-07T23:53:09;14.20;99.90
51841;DHT22;37888;53.246;6.658;2023-08-07T23:55:43;13.00;99.90
51841;DHT22;37888;53.246;6.658;2023-08-07T23:58:12;14.50;99.90
